Time;durP1;ratioP1;P1;durP2;ratioP2;P2;SDS_P1;SDS_P2;PMS_P1;PMS_P2;Temp;Humidity;BMP_temperature;BMP_pressure;BME280_temperature;BME280_humidity;BME280_pressure;Samples;Min_cycle;Max_cycle;Signal;HPM_P1;HPM_P2
2022/06/14 00:03:18;;;;;;;12.55;3.80;;;;;;;14.07;94.24;99812.31;4789001;29;20071;-88
2022/06/14 00:05:44;;;;;;;9.73;3.90;;;;;;;14.05;94.22;99805.59;4787303;29;20510;-86
2022/06/14 00:08:14;;;;;;;12.63;3.72;;;;;;;14.03;94.38;99805.81;4772567;30;20031;-88
2022/06/14 00:10:41;;;;;;;9.00;3.80;;;;;;;14.14;94.41;99802.56;4758340;30;20039;-87
2022/06/14 00:13:09;;;;;;;9.25;3.70;;;;;;;14.05;94.52;99803.78;4756624;30;20379;-88
2022/06/14 00:15:34;;;;;;;8.93;3.80;;;;;;;14.32;93.54;99793.25;4773089;30;20035;-87
2022/06/14 00:18:00;;;;;;;7.75;3.70;;;;;;;14.17;93.45;99792.66;4787859;29;20084;-88
2022/06/14 00:20:26;;;;;;;12.77;4.28;;;;;;;14.09;93.70;99797.06;4773810;30;20394;-89
2022/06/14 00:22:51;;;;;;;9.85;3.95;;;;;;;14.21;93.21;99773.53;4773118;30;20520;-89
2022/06/14 00:25:46;;;;;;;10.70;3.60;;;;;;;14.19;93.14;99787.97;4757868;29;20118;-88
2022/06/14 00:28:14;;;;;;;12.95;4.00;;;;;;;14.48;93.08;99800.03;4770111;29;20059;-88
2022/06/14 00:30:42;;;;;;;7.70;3.35;;;;;;;14.57;93.02;99804.06;4780716;29;20055;-89
2022/06/14 00:33:08;;;;;;;8.93;3.80;;;;;;;14.58;93.32;99799.63;4796437;29;20034;-89
2022/06/14 00:35:34;;;;;;;6.55;3.20;;;;;;;14.50;93.48;99786.59;4764836;29;20474;-89
2022/06/14 00:38:00;;;;;;;7.13;3.78;;;;;;;14.63;93.52;99807.75;4769274;29;20455;-86
2022/06/14 00:40:36;;;;;;;8.57;3.53;;;;;;;14.64;93.49;99809.38;4767420;29;20042;-86
2022/06/14 00:43:05;;;;;;;8.10;3.70;;;;;;;14.69;93.22;99806.13;4797614;29;20474;-90
2022/06/14 00:45:30;;;;;;;7.53;3.80;;;;;;;14.54;92.27;99803.66;4797420;29;20114;-88
2022/06/14 00:47:58;;;;;;;7.55;4.05;;;;;;;14.34;93.07;99795.72;4780199;29;20125;-87
2022/06/14 00:50:30;;;;;;;6.70;3.15;;;;;;;14.40;92.67;99779.06;4782762;29;20034;-89
2022/06/14 00:53:19;;;;;;;6.63;3.33;;;;;;;14.54;93.08;99793.09;4766154;29;20035;-87
2022/06/14 00:55:51;;;;;;;12.23;3.92;;;;;;;14.53;93.38;99786.19;4764732;29;20494;-87
2022/06/14 00:58:23;;;;;;;6.53;3.50;;;;;;;14.52;94.02;99784.56;4795430;29;20045;-86
2022/06/14 01:00:54;;;;;;;6.15;3.17;;;;;;;14.48;92.02;99786.81;4795268;29;20035;-87
2022/06/14 01:03:25;;;;;;;8.48;3.72;;;;;;;14.36;91.87;99770.75;4785998;29;20092;-89
2022/06/14 01:06:06;;;;;;;7.65;3.50;;;;;;;14.55;91.92;99778.91;4777636;29;20070;-86
2022/06/14 01:08:41;;;;;;;5.93;3.30;;;;;;;14.53;92.58;99780.91;4781969;29;20046;-88
2022/06/14 01:11:12;;;;;;;5.28;3.10;;;;;;;14.51;92.53;99775.84;4795601;29;20031;-86
2022/06/14 01:13:39;;;;;;;7.63;3.47;;;;;;;14.56;91.42;99788.44;4795602;29;20038;-87
2022/06/14 01:16:07;;;;;;;8.43;3.17;;;;;;;14.60;91.36;99779.09;4780018;29;20031;-88
2022/06/14 01:18:34;;;;;;;7.88;3.35;;;;;;;14.57;91.58;99771.56;4780674;29;20039;-86
2022/06/14 01:20:59;;;;;;;5.60;3.33;;;;;;;14.54;91.36;99767.50;4779794;29;20039;-86
2022/06/14 01:23:25;;;;;;;7.55;3.47;;;;;;;14.53;92.13;99759.75;4798669;29;20095;-88
2022/06/14 01:26:05;;;;;;;8.00;3.30;;;;;;;14.45;92.42;99752.06;4799015;29;20054;-87
2022/06/14 01:28:33;;;;;;;9.43;3.92;;;;;;;14.47;92.37;99761.41;4794329;29;20051;-86
2022/06/14 01:30:59;;;;;;;5.63;3.03;;;;;;;14.51;93.03;99764.44;4794915;29;20039;-87
2022/06/14 01:33:35;;;;;;;8.30;3.42;;;;;;;14.56;93.58;99769.94;4797046;29;20076;-86
2022/06/14 01:36:08;;;;;;;6.70;3.22;;;;;;;14.50;93.70;99760.19;4779342;29;20391;-86
2022/06/14 01:38:34;;;;;;;4.32;2.75;;;;;;;14.50;94.02;99757.53;4763449;29;20039;-89
2022/06/14 01:41:02;;;;;;;8.30;4.00;;;;;;;14.56;94.23;99767.31;4777205;29;21554;-86
2022/06/14 01:44:03;;;;;;;11.30;3.90;;;;;;;14.52;94.40;99758.97;4794730;29;20367;-87
2022/06/14 01:46:34;;;;;;;4.95;3.22;;;;;;;14.54;94.71;99756.09;4735790;29;20081;-87
2022/06/14 01:52:14;;;;;;;7.25;3.78;;;;;;;14.58;93.32;99770.56;4797223;29;20399;-87
2022/06/14 01:55:30;;;;;;;9.48;3.70;;;;;;;14.60;93.08;99755.31;4763075;29;20038;-88
2022/06/14 01:58:03;;;;;;;9.43;3.15;;;;;;;14.60;91.73;99765.06;4712007;30;20041;-87
2022/06/14 02:00:38;;;;;;;8.02;3.55;;;;;;;14.34;90.77;99756.09;4762632;29;20466;-88
2022/06/14 02:06:25;;;;;;;4.30;2.65;;;;;;;14.49;90.40;99758.56;4794686;29;20062;-88
2022/06/14 02:09:17;;;;;;;5.43;3.17;;;;;;;14.58;89.78;99760.00;4777840;29;20066;-88
2022/06/14 02:11:43;;;;;;;8.40;3.40;;;;;;;14.51;90.37;99757.34;4772197;29;20433;-86
2022/06/14 02:14:15;;;;;;;5.90;3.00;;;;;;;14.63;89.86;99759.34;4763310;29;20035;-85
2022/06/14 02:16:51;;;;;;;7.82;2.97;;;;;;;14.60;90.42;99755.31;4780510;29;20034;-86
2022/06/14 02:19:30;;;;;;;6.90;2.90;;;;;;;14.50;90.70;99752.25;4778634;29;20055;-86
2022/06/14 02:22:02;;;;;;;8.30;3.40;;;;;;;14.47;90.80;99756.13;4779414;29;20035;-88
2022/06/14 02:24:44;;;;;;;4.53;3.13;;;;;;;14.55;90.40;99757.75;4762948;29;20043;-87
2022/06/14 02:27:22;;;;;;;6.63;3.33;;;;;;;14.39;90.41;99746.56;4766086;29;20558;-90
2022/06/14 02:30:00;;;;;;;6.15;3.00;;;;;;;14.50;90.40;99749.59;4779073;29;20555;-88
2022/06/14 02:32:42;;;;;;;7.47;3.70;;;;;;;14.57;90.76;99755.72;4762444;29;20042;-86
2022/06/14 02:35:32;;;;;;;6.65;3.08;;;;;;;14.53;90.90;99749.19;4778209;29;20039;-88
2022/06/14 02:38:15;;;;;;;5.90;3.40;;;;;;;14.48;90.87;99731.34;4779314;29;20084;-86
2022/06/14 02:40:50;;;;;;;6.75;2.88;;;;;;;14.54;90.57;99742.91;4778856;29;20446;-87
2022/06/14 02:43:41;;;;;;;5.60;3.13;;;;;;;14.50;90.69;99746.97;4794957;29;20030;-87
2022/06/14 02:46:34;;;;;;;7.00;2.90;;;;;;;14.48;90.91;99747.19;4793150;29;20119;-89
2022/06/14 02:49:08;;;;;;;6.40;3.08;;;;;;;14.41;91.20;99733.97;4780822;29;20159;-88
2022/06/14 02:51:42;;;;;;;6.30;3.28;;;;;;;14.42;91.14;99732.13;4781345;29;20122;-88
2022/06/14 02:54:18;;;;;;;7.65;3.33;;;;;;;14.42;91.08;99725.03;4794140;29;20035;-86
2022/06/14 02:57:19;;;;;;;6.15;3.22;;;;;;;14.50;90.90;99725.84;4777979;29;20054;-88
2022/06/14 03:00:11;;;;;;;5.25;3.20;;;;;;;14.36;91.87;99731.13;4759969;29;20142;-86
2022/06/14 03:02:43;;;;;;;7.38;3.38;;;;;;;14.39;91.96;99737.81;4761175;29;20043;-87
2022/06/14 03:05:22;;;;;;;8.18;2.75;;;;;;;14.33;92.37;99717.50;4781451;29;20031;-87
2022/06/14 03:07:56;;;;;;;5.70;3.00;;;;;;;14.30;92.83;99718.72;4794921;29;20066;-87
2022/06/14 03:10:28;;;;;;;4.97;3.20;;;;;;;14.24;93.18;99712.41;4796226;29;20045;-87
2022/06/14 03:13:02;;;;;;;7.45;3.03;;;;;;;14.18;93.88;99720.34;4791302;29;20032;-86
2022/06/14 03:16:10;;;;;;;9.95;3.50;;;;;;;14.11;94.44;99707.94;4779567;29;20062;-87
2022/06/14 03:18:49;;;;;;;6.80;2.83;;;;;;;14.18;94.68;99715.06;4780026;29;20436;-86
2022/06/14 03:21:27;;;;;;;14.07;3.13;;;;;;;14.07;94.79;99709.34;4774914;29;20062;-87
2022/06/14 03:24:13;;;;;;;9.05;3.63;;;;;;;14.16;94.78;99701.25;4767430;29;20049;-86
2022/06/14 03:26:57;;;;;;;6.90;3.13;;;;;;;14.18;95.15;99709.78;4793562;29;20502;-86
2022/06/14 03:29:36;;;;;;;7.72;3.20;;;;;;;14.22;95.15;99713.66;4783574;29;20047;-87
2022/06/14 03:32:17;;;;;;;10.82;4.00;;;;;;;14.22;95.17;99709.16;4797245;29;20058;-86
2022/06/14 03:34:52;;;;;;;4.85;2.90;;;;;;;14.14;95.16;99704.88;4798575;29;20119;-89
2022/06/14 03:37:18;;;;;;;6.40;3.15;;;;;;;14.03;95.97;99705.50;4797608;29;20398;-90
2022/06/14 03:39:51;;;;;;;9.48;3.33;;;;;;;13.83;96.60;99706.28;4783644;29;20034;-87
2022/06/14 03:42:17;;;;;;;9.90;2.90;;;;;;;13.82;96.84;99690.63;4782700;29;20046;-87
2022/06/14 03:44:43;;;;;;;12.00;3.45;;;;;;;13.90;96.83;99692.25;4796153;29;20031;-86
2022/06/14 03:47:10;;;;;;;6.38;2.63;;;;;;;14.02;96.79;99706.50;4798771;29;20038;-88
2022/06/14 03:49:48;;;;;;;9.52;3.00;;;;;;;14.05;96.92;99719.31;4768689;29;20047;-87
2022/06/14 03:52:32;;;;;;;6.22;3.40;;;;;;;13.87;97.79;99704.06;4795507;29;20039;-89
2022/06/14 03:55:15;;;;;;;7.63;3.08;;;;;;;13.99;97.31;99704.28;4781014;29;20027;-87
2022/06/14 03:58:29;;;;;;;7.40;3.50;;;;;;;14.10;97.24;99708.94;4796824;29;20039;-86
2022/06/14 04:01:00;;;;;;;6.68;3.25;;;;;;;14.16;97.14;99712.63;4794465;29;20490;-88
2022/06/14 04:03:32;;;;;;;9.68;2.80;;;;;;;14.25;96.97;99713.22;4798192;29;20031;-88
2022/06/14 04:06:16;;;;;;;10.30;3.15;;;;;;;14.30;97.03;99702.88;4781262;29;20042;-88
2022/06/14 04:08:57;;;;;;;;;;;;;;;14.39;96.70;99706.13;4783732;29;20027;-87
2022/06/14 04:12:00;;;;;;;9.13;2.85;;;;;;;14.48;96.65;99706.75;4796354;29;20403;-86
2022/06/14 04:14:43;;;;;;;8.88;2.80;;;;;;;14.45;96.59;99702.69;4799763;29;20375;-86
2022/06/14 04:17:15;;;;;;;;;;;;;;;14.52;96.79;99700.84;4779350;29;20055;-87
2022/06/14 04:19:44;;;;;;;8.13;3.30;;;;;;;14.59;96.68;99697.38;4795740;29;20277;-88
2022/06/14 04:22:25;;;;;;;9.32;3.13;;;;;;;14.18;97.05;99688.66;4797451;29;20489;-86
2022/06/14 04:25:04;;;;;;;6.53;3.28;;;;;;;14.22;96.89;99695.16;4797876;29;20497;-86
2022/06/14 04:27:57;;;;;;;5.88;3.63;;;;;;;14.42;96.19;99695.97;4779314;29;20468;-88
2022/06/14 04:30:31;;;;;;;7.60;3.05;;;;;;;14.39;97.05;99701.66;4783699;29;20048;-86
2022/06/14 04:33:24;;;;;;;9.38;3.50;;;;;;;14.46;96.77;99695.56;4781142;29;20066;-89
2022/06/14 04:35:52;;;;;;;6.95;2.90;;;;;;;14.54;96.88;99703.28;4791121;29;20047;-86
2022/06/14 04:38:24;;;;;;;7.57;2.92;;;;;;;14.68;96.47;99702.25;4799647;29;20397;-86
2022/06/14 04:41:06;;;;;;;7.57;3.30;;;;;;;14.76;96.47;99700.47;4766350;29;20045;-84
2022/06/14 04:43:39;;;;;;;6.70;3.20;;;;;;;14.81;96.09;99695.38;4780527;29;20043;-85
2022/06/14 04:46:12;;;;;;;6.30;3.47;;;;;;;14.91;95.88;99698.38;4795959;29;20545;-85
2022/06/14 04:49:05;;;;;;;8.93;3.17;;;;;;;14.97;96.96;99692.28;4778311;29;20495;-84
2022/06/14 04:51:39;;;;;;;8.55;3.28;;;;;;;15.10;96.56;99690.59;4782815;29;20050;-88
2022/06/14 04:54:15;;;;;;;6.53;3.00;;;;;;;15.18;96.43;99693.03;4795896;29;20039;-87
2022/06/14 04:56:50;;;;;;;9.73;4.05;;;;;;;15.17;96.54;99688.78;4794474;29;20192;-88
2022/06/14 04:59:33;;;;;;;7.88;3.08;;;;;;;15.29;96.08;99688.94;4792731;29;20424;-87
2022/06/14 05:02:13;;;;;;;6.20;3.70;;;;;;;15.40;96.09;99700.69;4796730;29;20125;-86
2022/06/14 05:05:08;;;;;;;10.25;3.85;;;;;;;15.48;96.34;99692.50;4797166;29;20041;-87
2022/06/14 05:07:41;;;;;;;7.25;2.97;;;;;;;15.59;95.33;99692.88;4793213;29;20062;-87
2022/06/14 05:10:19;;;;;;;8.68;3.25;;;;;;;15.62;94.58;99695.09;4782121;29;20042;-86
2022/06/14 05:12:53;;;;;;;6.38;2.92;;;;;;;15.50;94.35;99698.38;4796128;29;20031;-88
2022/06/14 05:15:47;;;;;;;8.50;3.60;;;;;;;15.48;90.85;99687.22;4777097;30;20127;-89
2022/06/14 05:18:45;;;;;;;7.65;3.30;;;;;;;15.79;90.81;99698.88;4768137;29;20030;-87
2022/06/14 05:21:17;;;;;;;8.65;3.70;;;;;;;15.92;91.14;99690.06;4749098;29;20129;-88
2022/06/14 05:23:54;;;;;;;8.18;3.25;;;;;;;16.02;91.09;99686.94;4781983;29;20088;-89
2022/06/14 05:26:29;;;;;;;6.10;3.28;;;;;;;16.19;91.39;99702.31;4775897;29;20061;-90
2022/06/14 05:29:04;;;;;;;7.50;3.05;;;;;;;16.10;93.30;99699.91;4782132;29;20059;-90
2022/06/14 05:31:46;;;;;;;9.55;3.10;;;;;;;16.04;95.00;99694.69;4798198;29;20042;-88
2022/06/14 05:34:35;;;;;;;8.70;3.03;;;;;;;16.14;95.47;99700.28;4794066;29;20134;-88
2022/06/14 05:37:07;;;;;;;4.55;3.22;;;;;;;16.26;94.79;99693.28;4747049;29;20046;-88
2022/06/14 05:39:48;;;;;;;8.25;3.10;;;;;;;16.40;93.99;99694.00;4777307;29;20034;-87
2022/06/14 05:42:19;;;;;;;4.78;2.80;;;;;;;16.56;93.47;99691.81;4800241;29;20062;-86
2022/06/14 05:44:48;;;;;;;6.10;2.88;;;;;;;16.65;92.75;99695.81;4779159;29;20038;-87
2022/06/14 05:47:25;;;;;;;6.00;3.05;;;;;;;16.66;92.56;99700.06;4790311;29;20047;-85
2022/06/14 05:49:57;;;;;;;8.10;3.42;;;;;;;16.67;92.38;99690.28;4762136;29;20066;-84
2022/06/14 05:52:38;;;;;;;8.95;3.38;;;;;;;16.87;92.16;99698.03;4796327;29;20554;-84
2022/06/14 05:55:34;;;;;;;6.85;3.45;;;;;;;16.96;90.92;99696.72;4793490;29;20096;-87
2022/06/14 05:58:10;;;;;;;8.65;3.40;;;;;;;16.74;88.83;99687.59;4780776;29;20043;-88
2022/06/14 06:01:07;;;;;;;7.20;3.60;;;;;;;16.96;88.28;99691.44;4781573;29;20031;-85
2022/06/14 06:03:54;;;;;;;5.13;3.53;;;;;;;17.12;87.74;99687.41;4777467;29;20067;-83
2022/06/14 06:06:39;;;;;;;7.13;4.03;;;;;;;17.32;90.71;99673.09;4792122;29;20027;-84
2022/06/14 06:09:18;;;;;;;6.72;3.53;;;;;;;17.50;89.81;99685.53;4795813;29;20042;-85
2022/06/14 06:11:56;;;;;;;4.80;3.20;;;;;;;17.54;89.73;99691.19;4760610;29;20039;-83
2022/06/14 06:14:46;;;;;;;6.30;3.22;;;;;;;17.76;89.98;99694.16;4792397;29;20062;-84
2022/06/14 06:17:12;;;;;;;8.10;3.45;;;;;;;17.85;87.95;99698.09;4777569;29;20504;-85
2022/06/14 06:20:13;;;;;;;7.13;3.53;;;;;;;17.82;84.98;99695.09;4780915;29;20031;-84
2022/06/14 06:22:45;;;;;;;8.45;3.50;;;;;;;17.94;85.37;99695.94;4794316;29;20039;-83
2022/06/14 06:25:15;;;;;;;5.72;3.55;;;;;;;18.13;85.30;99694.06;4778415;29;20490;-84
2022/06/14 06:27:52;;;;;;;6.65;3.58;;;;;;;18.35;84.39;99698.81;4764117;29;20035;-82
2022/06/14 06:30:56;;;;;;;8.00;3.70;;;;;;;18.37;83.68;99699.41;4761483;29;20466;-85
2022/06/14 06:33:26;;;;;;;8.13;3.60;;;;;;;18.56;82.87;99693.97;4705437;30;20496;-84
2022/06/14 06:36:03;;;;;;;6.28;3.25;;;;;;;18.65;83.55;99697.09;4719537;30;20401;-83
2022/06/14 06:38:36;;;;;;;6.07;3.70;;;;;;;18.74;82.88;99697.56;4763293;29;20039;-84
2022/06/14 06:44:07;;;;;;;5.00;3.63;;;;;;;18.93;81.72;99696.38;4780008;29;20053;-87
2022/06/14 06:46:44;;;;;;;9.33;3.77;;;;;;;19.07;79.98;99698.81;4779635;29;20129;-88
2022/06/14 06:49:12;;;;;;;6.22;3.42;;;;;;;19.12;80.75;99706.91;4791890;29;20680;-87
2022/06/14 06:51:47;;;;;;;6.18;3.50;;;;;;;19.17;81.17;99701.69;4794145;29;20051;-86
2022/06/14 06:54:37;;;;;;;7.32;3.58;;;;;;;19.40;80.74;99711.47;4778263;29;20152;-85
2022/06/14 06:57:06;;;;;;;8.02;3.80;;;;;;;19.52;78.26;99708.75;4793549;29;20444;-86
2022/06/14 06:59:41;;;;;;;5.88;3.53;;;;;;;19.70;79.57;99691.78;4795534;29;20031;-86
2022/06/14 07:02:19;;;;;;;5.85;3.70;;;;;;;19.76;78.77;99707.88;4777252;29;20070;-87
2022/06/14 07:05:03;;;;;;;10.82;4.03;;;;;;;19.50;75.34;99700.19;4780699;29;20485;-85
2022/06/14 07:07:54;;;;;;;8.15;3.88;;;;;;;19.78;77.76;99703.91;4764407;29;20073;-83
2022/06/14 07:10:36;;;;;;;8.75;4.28;;;;;;;19.82;76.66;99702.38;4767369;29;20046;-84
2022/06/14 07:13:20;;;;;;;6.53;4.15;;;;;;;20.07;77.60;99703.91;4791549;29;20031;-85
2022/06/14 07:15:55;;;;;;;6.03;3.90;;;;;;;19.83;74.81;99706.66;4789526;29;20041;-86
2022/06/14 07:18:26;;;;;;;8.50;4.10;;;;;;;20.01;74.77;99704.84;4776926;29;20160;-85
2022/06/14 07:20:56;;;;;;;10.50;3.90;;;;;;;20.27;77.42;99703.41;4776287;29;20046;-85
2022/06/14 07:23:54;;;;;;;7.95;4.18;;;;;;;20.41;77.95;99711.88;4781448;29;20073;-83
2022/06/14 07:26:37;;;;;;;6.03;3.83;;;;;;;20.49;76.16;99707.22;4752877;29;20051;-82
2022/06/14 07:29:14;;;;;;;9.80;4.72;;;;;;;20.51;76.44;99705.09;4793401;29;20063;-84
2022/06/14 07:32:12;;;;;;;6.15;4.35;;;;;;;20.62;75.20;99704.19;4776895;29;20417;-83
2022/06/14 07:34:40;;;;;;;9.13;3.80;;;;;;;20.49;76.26;99699.22;4792977;29;20041;-85
2022/06/14 07:37:29;;;;;;;7.90;4.47;;;;;;;20.73;74.58;99699.00;4782500;29;20047;-84
2022/06/14 07:40:02;;;;;;;6.35;3.90;;;;;;;20.54;72.83;99700.09;4775220;29;20490;-85
2022/06/14 07:42:48;;;;;;;5.90;3.85;;;;;;;20.75;68.60;99696.91;4779952;29;20035;-85
2022/06/14 07:45:21;;;;;;;5.55;3.40;;;;;;;20.63;67.49;99697.00;4777640;29;20035;-87
2022/06/14 07:47:53;;;;;;;6.63;3.50;;;;;;;20.89;68.80;99692.84;4788945;29;20058;-84
2022/06/14 07:50:22;;;;;;;5.68;3.47;;;;;;;21.02;68.20;99690.88;4796892;29;20130;-85
2022/06/14 07:52:54;;;;;;;7.22;4.07;;;;;;;21.17;67.68;99688.38;4794165;29;20122;-85
2022/06/14 07:55:27;;;;;;;4.20;3.28;;;;;;;21.29;70.10;99685.59;4779798;29;20092;-85
2022/06/14 07:57:58;;;;;;;7.85;4.03;;;;;;;21.28;67.30;99683.97;4794895;29;20046;-86
2022/06/14 08:03:23;;;;;;;5.05;3.75;;;;;;;21.02;67.83;99681.00;4776881;29;20399;-85
2022/06/14 08:05:51;;;;;;;10.55;3.92;;;;;;;20.53;66.62;99676.31;4777255;29;20082;-83
2022/06/14 08:08:27;;;;;;;5.68;3.55;;;;;;;20.37;69.38;99676.09;4776062;29;20034;-85
2022/06/14 08:10:57;;;;;;;8.07;3.90;;;;;;;20.18;71.06;99674.75;4792648;29;20441;-86
2022/06/14 08:13:32;;;;;;;8.57;3.90;;;;;;;20.12;72.33;99674.66;4793258;29;20058;-85
2022/06/14 08:16:01;;;;;;;7.45;3.70;;;;;;;20.09;72.38;99677.81;4792657;29;20114;-83
2022/06/14 08:18:52;;;;;;;6.15;4.13;;;;;;;20.22;70.62;99674.00;4781373;29;20072;-84
2022/06/14 08:21:31;;;;;;;7.47;3.97;;;;;;;20.38;71.89;99667.06;4790051;29;20031;-84
2022/06/14 08:24:17;;;;;;;5.85;3.67;;;;;;;20.75;71.25;99660.38;4796833;29;20065;-86
2022/06/14 08:26:49;;;;;;;8.75;4.47;;;;;;;20.95;69.48;99657.16;4780137;29;20508;-86
2022/06/14 08:29:27;;;;;;;6.80;3.95;;;;;;;21.35;72.65;99652.56;4792810;29;20080;-85
2022/06/14 08:32:00;;;;;;;8.18;4.07;;;;;;;21.65;72.19;99651.28;4798344;29;20039;-85
2022/06/14 08:34:39;;;;;;;8.35;3.92;;;;;;;21.61;69.91;99643.97;4798113;29;20072;-85
2022/06/14 08:37:10;;;;;;;6.65;4.50;;;;;;;21.74;69.93;99640.94;4781466;29;20038;-85
2022/06/14 08:39:45;;;;;;;5.25;3.85;;;;;;;21.88;68.55;99643.97;4782589;29;20043;-85
2022/06/14 08:42:17;;;;;;;6.50;3.85;;;;;;;22.36;68.36;99645.94;4798336;29;20462;-86
2022/06/14 08:45:11;;;;;;;5.47;3.63;;;;;;;22.89;68.17;99648.63;4784917;29;20548;-86
2022/06/14 08:47:55;;;;;;;;;;;;;;;22.93;68.94;99644.38;4778891;29;20045;-85
2022/06/14 08:50:34;;;;;;;4.88;3.47;;;;;;;23.16;64.33;99638.84;4800253;29;19923;-86
2022/06/14 08:53:22;;;;;;;6.07;4.22;;;;;;;23.29;65.35;99640.22;4780811;29;20578;-85
2022/06/14 08:56:12;;;;;;;6.32;3.90;;;;;;;23.58;64.82;99642.41;4796064;29;20092;-88
2022/06/14 08:59:04;;;;;;;6.47;4.18;;;;;;;23.71;65.17;99644.56;4781392;29;20057;-87
2022/06/14 09:02:04;;;;;;;4.10;3.70;;;;;;;23.92;64.00;99637.34;4781480;29;20039;-88
2022/06/14 09:05:01;;;;;;;5.22;3.92;;;;;;;23.91;64.15;99641.09;4765669;29;20051;-88
2022/06/14 09:07:48;;;;;;;8.45;4.72;;;;;;;23.84;64.25;99634.41;4779523;29;20031;-87
2022/06/14 09:10:51;;;;;;;8.10;4.20;;;;;;;23.63;63.84;99635.19;4779425;29;20027;-89
2022/06/14 09:13:37;;;;;;;7.45;4.68;;;;;;;23.14;66.42;99630.25;4781006;29;20138;-88
2022/06/14 09:16:40;;;;;;;9.38;4.28;;;;;;;23.06;66.86;99634.25;4779630;29;20122;-88
2022/06/14 09:19:27;;;;;;;8.90;4.17;;;;;;;22.95;66.09;99628.84;4780436;29;20035;-88
2022/06/14 09:22:06;;;;;;;7.75;4.40;;;;;;;23.01;66.96;99618.97;4795825;29;20091;-88
2022/06/14 09:24:47;;;;;;;10.20;4.97;;;;;;;22.90;65.71;99620.00;4762745;29;20031;-86
2022/06/14 09:27:28;;;;;;;5.65;4.18;;;;;;;22.87;65.82;99621.34;4795731;29;20043;-87
2022/06/14 09:29:59;;;;;;;7.22;3.88;;;;;;;22.66;65.61;99620.44;4793437;29;20493;-87
2022/06/14 09:33:10;;;;;;;5.68;3.85;;;;;;;22.56;65.63;99629.22;4779688;29;20031;-88
2022/06/14 09:36:06;;;;;;;6.70;4.70;;;;;;;22.66;63.70;99615.09;4796317;29;20027;-87
2022/06/14 09:38:42;;;;;;;6.63;3.85;;;;;;;22.64;64.79;99617.22;4765867;29;20027;-87
2022/06/14 09:41:11;;;;;;;10.73;4.20;;;;;;;22.73;66.48;99614.84;4776547;29;20545;-87
2022/06/14 09:43:58;;;;;;;6.78;4.00;;;;;;;22.77;64.55;99618.59;4778581;29;20038;-88
2022/06/14 09:46:43;;;;;;;9.60;4.32;;;;;;;23.15;65.83;99621.94;4776626;29;20050;-87
2022/06/14 09:49:30;;;;;;;4.35;3.90;;;;;;;23.33;66.13;99609.16;4781491;29;20089;-88
2022/06/14 09:52:08;;;;;;;6.78;4.55;;;;;;;23.54;65.49;99616.16;4782031;29;20047;-88
2022/06/14 09:54:49;;;;;;;12.57;4.80;;;;;;;23.58;62.75;99610.25;4777157;29;20038;-87
2022/06/14 09:57:37;;;;;;;5.85;4.43;;;;;;;23.93;63.86;99614.81;4795730;29;20039;-88
2022/06/14 10:00:25;;;;;;;4.57;4.00;;;;;;;24.71;63.34;99611.16;4768949;29;20375;-89
2022/06/14 10:03:09;;;;;;;6.55;4.70;;;;;;;24.95;63.71;99606.78;4798364;29;20063;-88
2022/06/14 10:06:01;;;;;;;5.00;3.88;;;;;;;25.06;59.87;99606.75;4784805;29;20084;-87
2022/06/14 10:09:00;;;;;;;5.68;4.20;;;;;;;24.92;60.07;99611.91;4800315;29;20038;-88
2022/06/14 10:11:59;;;;;;;6.68;4.10;;;;;;;24.74;59.74;99611.44;4781805;29;20104;-88
2022/06/14 10:14:44;;;;;;;6.57;4.55;;;;;;;24.54;57.74;99606.94;4793448;29;20112;-88
2022/06/14 10:17:48;;;;;;;6.57;4.53;;;;;;;24.61;57.44;99620.88;4777548;29;20054;-88
2022/06/14 10:20:18;;;;;;;4.30;3.90;;;;;;;24.63;58.26;99616.03;4779883;29;20122;-87
2022/06/14 10:22:53;;;;;;;7.43;4.57;;;;;;;23.71;57.89;99617.78;4779884;29;20051;-87
2022/06/14 10:25:31;;;;;;;11.95;4.50;;;;;;;23.71;58.68;99619.66;4776274;29;20039;-89
2022/06/14 10:28:21;;;;;;;8.05;5.00;;;;;;;24.00;60.34;99619.91;4794123;29;20507;-88
2022/06/14 10:31:09;;;;;;;6.25;4.60;;;;;;;24.14;59.55;99622.06;4755546;29;20051;-87
2022/06/14 10:33:39;;;;;;;8.82;4.30;;;;;;;23.83;57.99;99617.50;4785385;30;20047;-88
2022/06/14 10:36:15;;;;;;;6.93;4.20;;;;;;;24.62;61.13;99619.81;4787320;30;20483;-88
2022/06/14 10:39:11;;;;;;;5.50;4.60;;;;;;;24.88;60.71;99617.03;4786305;30;20050;-87
2022/06/14 10:41:55;;;;;;;4.43;4.03;;;;;;;24.81;60.86;99613.84;4786662;29;20031;-87
2022/06/14 10:44:34;;;;;;;6.10;4.70;;;;;;;24.83;60.66;99597.44;4770123;30;20070;-88
2022/06/14 10:47:01;;;;;;;7.47;4.65;;;;;;;24.85;59.91;99606.84;4787720;29;20473;-87
2022/06/14 10:49:48;;;;;;;5.43;4.60;;;;;;;25.08;60.44;99604.56;4770460;30;20042;-86
2022/06/14 10:52:34;;;;;;;10.05;5.20;;;;;;;25.39;59.06;99599.00;4756042;29;20486;-87
2022/06/14 10:55:15;;;;;;;9.95;5.25;;;;;;;25.12;58.41;99594.88;4770154;30;20442;-88
2022/06/14 10:57:57;;;;;;;6.82;4.75;;;;;;;24.96;57.78;99596.84;4755431;30;20058;-87
2022/06/14 11:00:26;;;;;;;9.93;5.75;;;;;;;23.68;58.73;99592.31;4769854;30;20386;-88
2022/06/14 11:03:03;;;;;;;7.38;5.20;;;;;;;24.32;58.15;99591.19;4755725;30;21562;-87
2022/06/14 11:05:32;;;;;;;8.45;4.50;;;;;;;25.19;60.26;99595.38;4786677;30;20482;-89
2022/06/14 11:08:23;;;;;;;7.25;4.72;;;;;;;25.41;57.32;99596.03;4787097;30;20122;-87
2022/06/14 11:10:58;;;;;;;6.80;4.60;;;;;;;25.75;57.78;99590.69;4779968;30;20050;-87
2022/06/14 11:13:30;;;;;;;8.80;4.88;;;;;;;24.59;55.43;99588.16;4778315;30;20114;-85
2022/06/14 11:16:15;;;;;;;7.13;4.35;;;;;;;25.39;55.78;99583.69;4771139;30;20088;-85
2022/06/14 11:19:31;;;;;;;7.05;4.57;;;;;;;25.99;57.42;99589.94;4769512;29;20451;-86
2022/06/14 11:22:36;;;;;;;8.73;4.63;;;;;;;25.84;56.27;99577.41;4785669;29;20038;-86
2022/06/14 11:25:03;;;;;;;8.80;4.93;;;;;;;26.17;54.61;99576.88;4785754;30;20040;-85
2022/06/14 11:27:40;;;;;;;6.72;4.88;;;;;;;26.72;56.66;99572.97;4770084;30;20046;-83
2022/06/14 11:30:09;;;;;;;9.20;5.20;;;;;;;26.53;54.83;99579.16;4793779;29;20059;-84
2022/06/14 11:32:59;;;;;;;8.48;5.13;;;;;;;26.71;56.35;99566.00;4780448;29;20035;-84
2022/06/14 11:35:33;;;;;;;7.97;5.32;;;;;;;26.84;55.75;99564.50;4793387;29;20158;-88
2022/06/14 11:38:30;;;;;;;8.07;5.25;;;;;;;26.90;55.31;99568.75;4791087;29;20046;-87
2022/06/14 11:41:02;;;;;;;8.23;4.72;;;;;;;27.28;56.73;99568.72;4780311;29;20027;-86
2022/06/14 11:43:27;;;;;;;11.43;5.18;;;;;;;25.91;53.15;99563.66;4778736;29;20058;-87
2022/06/14 11:46:07;;;;;;;7.82;5.35;;;;;;;26.17;52.15;99560.75;4779820;29;20063;-87
2022/06/14 11:49:37;;;;;;;6.18;4.80;;;;;;;26.77;53.89;99549.47;4785179;29;20058;-86
2022/06/14 11:52:41;;;;;;;7.03;5.00;;;;;;;26.86;53.47;99563.13;4785656;29;20054;-86
2022/06/14 11:55:34;;;;;;;5.70;4.70;;;;;;;26.63;52.99;99556.69;4781362;29;20042;-86
2022/06/14 11:58:27;;;;;;;6.33;4.50;;;;;;;26.59;53.99;99559.16;4795400;29;20448;-86
2022/06/14 12:01:07;;;;;;;5.78;4.22;;;;;;;26.99;54.36;99556.22;4800549;29;20027;-86
2022/06/14 12:03:58;;;;;;;8.05;5.15;;;;;;;26.76;52.29;99541.72;4797912;29;20456;-87
2022/06/14 12:06:50;;;;;;;6.47;4.85;;;;;;;27.00;51.69;99543.56;4795138;29;20095;-87
2022/06/14 12:09:34;;;;;;;6.40;4.80;;;;;;;26.76;50.84;99544.41;4765386;29;20062;-86
2022/06/14 12:12:16;;;;;;;6.95;4.60;;;;;;;26.76;54.48;99537.13;4781845;29;20051;-88
2022/06/14 12:15:00;;;;;;;6.93;5.30;;;;;;;26.41;51.34;99533.78;4778414;29;20040;-87
2022/06/14 12:17:39;;;;;;;6.50;4.60;;;;;;;26.63;53.98;99541.34;4797266;29;20133;-89
2022/06/14 12:20:19;;;;;;;7.20;4.68;;;;;;;26.49;52.60;99537.75;4784274;29;20035;-87
2022/06/14 12:22:59;;;;;;;9.82;4.95;;;;;;;26.17;51.43;99540.00;4769483;29;20098;-88
2022/06/14 12:28:57;;;;;;;7.43;4.70;;;;;;;26.70;52.32;99532.09;4785283;29;20503;-88
2022/06/14 12:31:29;;;;;;;7.47;5.00;;;;;;;26.41;51.83;99524.94;4799815;29;20038;-88
2022/06/14 12:34:10;;;;;;;5.47;4.63;;;;;;;26.50;50.51;99526.69;4779908;29;20035;-89
2022/06/14 12:36:38;;;;;;;6.75;4.85;;;;;;;25.80;52.06;99520.75;4785719;29;20031;-88
2022/06/14 12:39:15;;;;;;;8.18;5.18;;;;;;;25.95;51.16;99529.75;4783533;29;20043;-89
2022/06/14 12:42:04;;;;;;;7.47;4.90;;;;;;;25.48;52.08;99521.31;4780156;29;20035;-88
2022/06/14 12:44:53;;;;;;;5.80;4.63;;;;;;;25.89;51.18;99514.72;4780728;29;20563;-87
2022/06/14 12:47:26;;;;;;;6.38;4.70;;;;;;;25.73;51.70;99512.19;4795957;29;20630;-88
2022/06/14 12:50:02;;;;;;;6.10;4.90;;;;;;;26.14;51.06;99510.97;4782127;29;20122;-87